Página principal
METAR-TAF:

METAR-TAF

Aeroportos :

Aeroporto Internacional Sir Seewoosagur Ramgoolam

Maurícia, Maurícia

latitude: 20-26S, longitude: 057-40E, altura: 55 m

Observação actual do tempo

O boletim foi feito há 21 minutos, às 01:00 UTC
Vento 10 kt de este
Temperatura 22°C
Humidade 78%
Pressão 1023 hPa
Visibilidade 10 km ou mais
Nuvens fragmentadasa uma altura de 1700 ft

METAR: FIMP 260100Z 08010KT 9999 BKN017 22/18 Q1023

Hora: 05:21 (01:21 UTC)

Previsão

O boletim foi feito há 2 horas e 21 minutos, às 23:00 UTC
Previsão válida de 26 às 00 UTC a 27 às 06 UTC
Vento 10 kt de este
Visibilidade 10 km ou mais
Nuvens dispersasa uma altura de 1700 ft

TAF: FIMP 252300Z 2600/2706 10010KT 9999 SCT017

Observações e previsões do tempo de mais de 4000 aeroportos (mensagens METAR e TAF).

As estações disponíveis são os pontos amarelos e vermelhos sobre o mapa.

Mova o rato sobre o mapa para ver o nome da estação.

Depois clique no ponto para visualizar as observações e previsões meteorológicas.

Para alterar o mapa : clique nos botões verdes com uma cruz preta para aumentar o zoom; no botão verde com uma pitada de zoom; ou nas setas verdes para mapas adjacentes.


METAR-TAF: